Aérodrome :
LOGIN :

S'inscrire | Disclaimer

   EN    FR    IT 

 










Légende :    VFR   VFR Marginal   IFR   IFR Intensif   IFR Très Intensif
Visi : 
Plafond : 
>= 8 km
>= 3000ft
5 à 8 km
1000 à 3000 ft
1500m à 5 km
500 à 1000 ft
800 à 1500m
200 à 500 ft
< 800m
< 200 ft
Symboles :   Orages  Brouillard  Fortes neiges  Fortes précipitations  Vent > 20 kt
SIGMETs :   Divers  Orages  Givrage  Turbulence  Onde Orograph.  Cendres Volcan.






- Altitude de l'aérodrome : 755 ft
- Code IATA : DRS


EDDC - Dresden Klotzsche

DERNIER METAR :
  • 250920Z AUTO 07010KT 030V100 9999 FEW044 23/11 Q1018 NOSIG

METARs EXPIRÉS :
  • 250850Z AUTO 08010KT 040V120 CAVOK 23/12 Q1018 NOSIG
  • 250820Z AUTO 09009G19KT 030V120 9999 FEW044 22/12 Q1018 NOSIG
  • 250750Z AUTO 10007KT 030V140 9999 FEW043 22/11 Q1018 NOSIG
  • 250720Z AUTO 10006KT 050V140 CAVOK 22/12 Q1019 NOSIG
  • 250650Z AUTO 11004KT 040V160 CAVOK 21/12 Q1019 NOSIG
  • 250620Z AUTO 08004KT 020V120 CAVOK 21/12 Q1019 NOSIG
  • 250550Z AUTO 09003KT 050V130 CAVOK 20/12 Q1019 NOSIG
  • 250520Z AUTO VRB01KT CAVOK 18/11 Q1019 NOSIG
  • 250450Z AUTO VRB01KT CAVOK 17/12 Q1019 NOSIG
  • 250420Z AUTO VRB02KT CAVOK 15/12 Q1019 NOSIG

TAF TAF EDDC
Valide du 25 à 06h jusqu'au 26 à 06h UTC


250500Z 2506/2606 12004KT CAVOK
BECMG 2507/2510 09010KT
BECMG 2518/2521 08005KT



MET'MAP, la Météo Aéronautique d'un coup d'oeil ! - Copyright ORBIFLY Décembre 2007 - Disclaimer

ORBIFLY MET'MAP TEAM :

Programmation & Développement : Alexandra Zaïnal
Sur une idée originale de : Baudouin d'Aumeries
Soutien technique & logistique : Manuel Goepfert
Assistance : Marc-Olivier Méhu




SOURCES & CREDITS :

   NOAA